sensor_id;sensor_type;location;lat;lon;timestamp;P1;P2;P0
45990;PMS5003;31721;41.740;-88.000;2023-04-25T00:01:33;16;14;
45990;PMS5003;31721;41.740;-88.000;2023-04-25T00:04:00;25;22;
45990;PMS5003;31721;41.740;-88.000;2023-04-25T00:06:28;15;10;
45990;PMS5003;31721;41.740;-88.000;2023-04-25T00:08:56;14;13;
45990;PMS5003;31721;41.740;-88.000;2023-04-25T00:11:24;14;13;
45990;PMS5003;31721;41.740;-88.000;2023-04-25T00:13:52;19;15;
45990;PMS5003;31721;41.740;-88.000;2023-04-25T00:16:20;15;13;
45990;PMS5003;31721;41.740;-88.000;2023-04-25T00:18:47;15;12;
45990;PMS5003;31721;41.740;-88.000;2023-04-25T00:21:15;14;13;
45990;PMS5003;31721;41.740;-88.000;2023-04-25T00:23:44;17;15;
45990;PMS5003;31721;41.740;-88.000;2023-04-25T00:26:12;12;12;
45990;PMS5003;31721;41.740;-88.000;2023-04-25T00:28:40;15;15;
45990;PMS5003;31721;41.740;-88.000;2023-04-25T00:31:08;16;13;
45990;PMS5003;31721;41.740;-88.000;2023-04-25T00:33:36;17;17;
45990;PMS5003;31721;41.740;-88.000;2023-04-25T00:36:04;15;13;
45990;PMS5003;31721;41.740;-88.000;2023-04-25T00:38:33;14;13;
45990;PMS5003;31721;41.740;-88.000;2023-04-25T00:41:01;15;15;
45990;PMS5003;31721;41.740;-88.000;2023-04-25T00:43:29;11;11;
45990;PMS5003;31721;41.740;-88.000;2023-04-25T00:45:59;12;11;
45990;PMS5003;31721;41.740;-88.000;2023-04-25T00:48:27;15;15;
45990;PMS5003;31721;41.740;-88.000;2023-04-25T00:50:57;14;12;
45990;PMS5003;31721;41.740;-88.000;2023-04-25T00:53:26;14;12;
45990;PMS5003;31721;41.740;-88.000;2023-04-25T00:55:55;19;17;
45990;PMS5003;31721;41.740;-88.000;2023-04-25T00:58:23;22;15;
45990;PMS5003;31721;41.740;-88.000;2023-04-25T01:00:52;12;12;
45990;PMS5003;31721;41.740;-88.000;2023-04-25T01:03:20;17;13;
45990;PMS5003;31721;41.740;-88.000;2023-04-25T01:05:48;16;15;
45990;PMS5003;31721;41.740;-88.000;2023-04-25T01:08:16;24;23;
45990;PMS5003;31721;41.740;-88.000;2023-04-25T01:10:44;17;16;
45990;PMS5003;31721;41.740;-88.000;2023-04-25T01:13:12;19;19;
45990;PMS5003;31721;41.740;-88.000;2023-04-25T01:15:40;17;17;
45990;PMS5003;31721;41.740;-88.000;2023-04-25T01:18:08;13;10;
45990;PMS5003;31721;41.740;-88.000;2023-04-25T01:20:36;15;14;
45990;PMS5003;31721;41.740;-88.000;2023-04-25T01:23:06;15;14;
45990;PMS5003;31721;41.740;-88.000;2023-04-25T01:25:34;21;19;
45990;PMS5003;31721;41.740;-88.000;2023-04-25T01:28:02;18;18;
45990;PMS5003;31721;41.740;-88.000;2023-04-25T01:30:30;15;15;
45990;PMS5003;31721;41.740;-88.000;2023-04-25T01:32:59;13;10;
45990;PMS5003;31721;41.740;-88.000;2023-04-25T01:35:28;21;16;
45990;PMS5003;31721;41.740;-88.000;2023-04-25T01:37:56;14;12;
45990;PMS5003;31721;41.740;-88.000;2023-04-25T01:40:24;19;18;
45990;PMS5003;31721;41.740;-88.000;2023-04-25T01:42:53;18;16;
45990;PMS5003;31721;41.740;-88.000;2023-04-25T01:45:21;18;15;
45990;PMS5003;31721;41.740;-88.000;2023-04-25T01:47:49;19;15;
45990;PMS5003;31721;41.740;-88.000;2023-04-25T01:50:18;24;21;
45990;PMS5003;31721;41.740;-88.000;2023-04-25T01:52:45;21;19;
45990;PMS5003;31721;41.740;-88.000;2023-04-25T01:55:13;15;14;
45990;PMS5003;31721;41.740;-88.000;2023-04-25T01:57:40;19;15;
45990;PMS5003;31721;41.740;-88.000;2023-04-25T02:00:09;19;14;
45990;PMS5003;31721;41.740;-88.000;2023-04-25T02:02:37;18;17;
45990;PMS5003;31721;41.740;-88.000;2023-04-25T02:05:05;14;13;
45990;PMS5003;31721;41.740;-88.000;2023-04-25T02:07:33;15;14;
45990;PMS5003;31721;41.740;-88.000;2023-04-25T02:10:02;18;14;
45990;PMS5003;31721;41.740;-88.000;2023-04-25T02:12:30;21;18;
45990;PMS5003;31721;41.740;-88.000;2023-04-25T02:14:58;20;16;
45990;PMS5003;31721;41.740;-88.000;2023-04-25T02:17:26;24;21;
45990;PMS5003;31721;41.740;-88.000;2023-04-25T02:19:54;19;18;
45990;PMS5003;31721;41.740;-88.000;2023-04-25T02:22:22;32;27;
45990;PMS5003;31721;41.740;-88.000;2023-04-25T02:24:50;29;24;
45990;PMS5003;31721;41.740;-88.000;2023-04-25T02:27:17;19;15;
45990;PMS5003;31721;41.740;-88.000;2023-04-25T02:29:45;14;14;
45990;PMS5003;31721;41.740;-88.000;2023-04-25T02:32:13;25;20;
45990;PMS5003;31721;41.740;-88.000;2023-04-25T02:34:41;19;19;
45990;PMS5003;31721;41.740;-88.000;2023-04-25T02:37:10;25;21;
45990;PMS5003;31721;41.740;-88.000;2023-04-25T02:39:37;20;19;
45990;PMS5003;31721;41.740;-88.000;2023-04-25T02:42:05;19;18;
45990;PMS5003;31721;41.740;-88.000;2023-04-25T02:44:32;19;15;
45990;PMS5003;31721;41.740;-88.000;2023-04-25T02:47:00;21;19;
45990;PMS5003;31721;41.740;-88.000;2023-04-25T02:49:28;21;16;
45990;PMS5003;31721;41.740;-88.000;2023-04-25T02:51:56;21;18;
45990;PMS5003;31721;41.740;-88.000;2023-04-25T02:54:24;23;19;
45990;PMS5003;31721;41.740;-88.000;2023-04-25T02:56:51;20;19;
45990;PMS5003;31721;41.740;-88.000;2023-04-25T02:59:18;16;16;
45990;PMS5003;31721;41.740;-88.000;2023-04-25T03:01:46;23;20;
45990;PMS5003;31721;41.740;-88.000;2023-04-25T03:04:14;13;13;
45990;PMS5003;31721;41.740;-88.000;2023-04-25T03:06:42;18;18;
45990;PMS5003;31721;41.740;-88.000;2023-04-25T03:09:09;18;18;
45990;PMS5003;31721;41.740;-88.000;2023-04-25T03:11:38;18;13;
45990;PMS5003;31721;41.740;-88.000;2023-04-25T03:14:06;17;17;
45990;PMS5003;31721;41.740;-88.000;2023-04-25T03:16:34;26;24;
45990;PMS5003;31721;41.740;-88.000;2023-04-25T03:19:01;18;15;
45990;PMS5003;31721;41.740;-88.000;2023-04-25T03:21:30;22;21;
45990;PMS5003;31721;41.740;-88.000;2023-04-25T03:23:58;19;14;
45990;PMS5003;31721;41.740;-88.000;2023-04-25T03:26:30;15;15;
45990;PMS5003;31721;41.740;-88.000;2023-04-25T03:28:58;20;19;
45990;PMS5003;31721;41.740;-88.000;2023-04-25T03:31:25;18;14;
45990;PMS5003;31721;41.740;-88.000;2023-04-25T03:33:53;23;21;
45990;PMS5003;31721;41.740;-88.000;2023-04-25T03:36:21;18;14;
45990;PMS5003;31721;41.740;-88.000;2023-04-25T03:38:49;21;14;
45990;PMS5003;31721;41.740;-88.000;2023-04-25T03:41:17;22;18;
45990;PMS5003;31721;41.740;-88.000;2023-04-25T03:43:45;17;13;
45990;PMS5003;31721;41.740;-88.000;2023-04-25T03:46:13;15;14;
45990;PMS5003;31721;41.740;-88.000;2023-04-25T03:48:41;19;19;
45990;PMS5003;31721;41.740;-88.000;2023-04-25T03:51:09;15;15;
45990;PMS5003;31721;41.740;-88.000;2023-04-25T03:53:37;22;19;
45990;PMS5003;31721;41.740;-88.000;2023-04-25T03:56:05;14;12;
45990;PMS5003;31721;41.740;-88.000;2023-04-25T03:58:33;17;15;
45990;PMS5003;31721;41.740;-88.000;2023-04-25T04:01:01;19;18;
45990;PMS5003;31721;41.740;-88.000;2023-04-25T04:03:29;14;13;
45990;PMS5003;31721;41.740;-88.000;2023-04-25T04:05:56;23;23;
45990;PMS5003;31721;41.740;-88.000;2023-04-25T04:08:24;13;12;
45990;PMS5003;31721;41.740;-88.000;2023-04-25T04:10:52;19;17;
45990;PMS5003;31721;41.740;-88.000;2023-04-25T04:13:20;18;17;
45990;PMS5003;31721;41.740;-88.000;2023-04-25T04:15:48;16;13;
45990;PMS5003;31721;41.740;-88.000;2023-04-25T04:18:16;25;19;
45990;PMS5003;31721;41.740;-88.000;2023-04-25T04:20:43;15;11;
45990;PMS5003;31721;41.740;-88.000;2023-04-25T04:23:12;17;16;
45990;PMS5003;31721;41.740;-88.000;2023-04-25T04:25:39;12;11;
45990;PMS5003;31721;41.740;-88.000;2023-04-25T04:28:08;14;14;
45990;PMS5003;31721;41.740;-88.000;2023-04-25T04:30:36;14;14;
45990;PMS5003;31721;41.740;-88.000;2023-04-25T04:33:03;23;21;
45990;PMS5003;31721;41.740;-88.000;2023-04-25T04:35:31;21;21;
45990;PMS5003;31721;41.740;-88.000;2023-04-25T04:37:59;13;12;
45990;PMS5003;31721;41.740;-88.000;2023-04-25T04:40:26;20;19;
45990;PMS5003;31721;41.740;-88.000;2023-04-25T04:42:54;19;13;
45990;PMS5003;31721;41.740;-88.000;2023-04-25T04:45:21;19;18;
45990;PMS5003;31721;41.740;-88.000;2023-04-25T04:47:49;19;15;
45990;PMS5003;31721;41.740;-88.000;2023-04-25T04:50:17;20;17;
45990;PMS5003;31721;41.740;-88.000;2023-04-25T04:52:45;23;21;
45990;PMS5003;31721;41.740;-88.000;2023-04-25T04:55:13;17;17;
45990;PMS5003;31721;41.740;-88.000;2023-04-25T04:57:41;18;15;
45990;PMS5003;31721;41.740;-88.000;2023-04-25T05:00:09;22;20;
45990;PMS5003;31721;41.740;-88.000;2023-04-25T05:02:38;33;28;
45990;PMS5003;31721;41.740;-88.000;2023-04-25T05:05:06;18;18;
45990;PMS5003;31721;41.740;-88.000;2023-04-25T05:07:34;20;18;
45990;PMS5003;31721;41.740;-88.000;2023-04-25T05:10:02;18;16;
45990;PMS5003;31721;41.740;-88.000;2023-04-25T05:12:30;21;21;
45990;PMS5003;31721;41.740;-88.000;2023-04-25T05:14:58;17;17;
45990;PMS5003;31721;41.740;-88.000;2023-04-25T05:17:26;18;18;
45990;PMS5003;31721;41.740;-88.000;2023-04-25T05:19:53;17;17;
45990;PMS5003;31721;41.740;-88.000;2023-04-25T05:22:22;17;17;
45990;PMS5003;31721;41.740;-88.000;2023-04-25T05:24:50;23;20;
45990;PMS5003;31721;41.740;-88.000;2023-04-25T05:27:18;16;16;
45990;PMS5003;31721;41.740;-88.000;2023-04-25T05:29:47;18;17;
45990;PMS5003;31721;41.740;-88.000;2023-04-25T05:32:14;23;19;
45990;PMS5003;31721;41.740;-88.000;2023-04-25T05:34:41;21;20;
45990;PMS5003;31721;41.740;-88.000;2023-04-25T05:37:09;20;18;
45990;PMS5003;31721;41.740;-88.000;2023-04-25T05:39:36;20;20;
45990;PMS5003;31721;41.740;-88.000;2023-04-25T05:42:04;21;21;
45990;PMS5003;31721;41.740;-88.000;2023-04-25T05:44:32;16;15;
45990;PMS5003;31721;41.740;-88.000;2023-04-25T05:47:00;15;15;
45990;PMS5003;31721;41.740;-88.000;2023-04-25T05:49:28;20;17;
45990;PMS5003;31721;41.740;-88.000;2023-04-25T05:51:56;19;19;
45990;PMS5003;31721;41.740;-88.000;2023-04-25T05:54:24;20;20;
45990;PMS5003;31721;41.740;-88.000;2023-04-25T05:56:52;22;18;
45990;PMS5003;31721;41.740;-88.000;2023-04-25T05:59:20;21;19;
45990;PMS5003;31721;41.740;-88.000;2023-04-25T06:01:48;23;19;
45990;PMS5003;31721;41.740;-88.000;2023-04-25T06:04:16;26;23;
45990;PMS5003;31721;41.740;-88.000;2023-04-25T06:06:44;22;16;
45990;PMS5003;31721;41.740;-88.000;2023-04-25T06:09:12;20;17;
45990;PMS5003;31721;41.740;-88.000;2023-04-25T06:11:39;26;24;
45990;PMS5003;31721;41.740;-88.000;2023-04-25T06:14:08;19;18;
45990;PMS5003;31721;41.740;-88.000;2023-04-25T06:16:35;20;19;
45990;PMS5003;31721;41.740;-88.000;2023-04-25T06:19:02;20;18;
45990;PMS5003;31721;41.740;-88.000;2023-04-25T06:21:30;30;24;
45990;PMS5003;31721;41.740;-88.000;2023-04-25T06:23:58;22;18;
45990;PMS5003;31721;41.740;-88.000;2023-04-25T06:26:26;29;25;
45990;PMS5003;31721;41.740;-88.000;2023-04-25T06:28:53;26;24;
45990;PMS5003;31721;41.740;-88.000;2023-04-25T06:31:21;19;18;
45990;PMS5003;31721;41.740;-88.000;2023-04-25T06:33:49;19;17;
45990;PMS5003;31721;41.740;-88.000;2023-04-25T06:36:16;22;19;
45990;PMS5003;31721;41.740;-88.000;2023-04-25T06:38:44;24;23;
45990;PMS5003;31721;41.740;-88.000;2023-04-25T06:41:12;26;19;
45990;PMS5003;31721;41.740;-88.000;2023-04-25T06:43:40;29;26;
45990;PMS5003;31721;41.740;-88.000;2023-04-25T06:46:07;23;23;
45990;PMS5003;31721;41.740;-88.000;2023-04-25T06:48:35;35;29;
45990;PMS5003;31721;41.740;-88.000;2023-04-25T06:51:03;30;23;
45990;PMS5003;31721;41.740;-88.000;2023-04-25T06:53:31;23;22;
45990;PMS5003;31721;41.740;-88.000;2023-04-25T06:55:58;30;28;
45990;PMS5003;31721;41.740;-88.000;2023-04-25T06:58:26;26;24;
45990;PMS5003;31721;41.740;-88.000;2023-04-25T07:00:54;23;23;
45990;PMS5003;31721;41.740;-88.000;2023-04-25T07:03:22;25;24;
45990;PMS5003;31721;41.740;-88.000;2023-04-25T07:05:50;26;23;
45990;PMS5003;31721;41.740;-88.000;2023-04-25T07:08:17;21;21;
45990;PMS5003;31721;41.740;-88.000;2023-04-25T07:10:45;25;23;
45990;PMS5003;31721;41.740;-88.000;2023-04-25T07:13:13;28;28;
45990;PMS5003;31721;41.740;-88.000;2023-04-25T07:15:41;29;22;
45990;PMS5003;31721;41.740;-88.000;2023-04-25T07:18:10;36;27;
45990;PMS5003;31721;41.740;-88.000;2023-04-25T07:20:38;25;25;
45990;PMS5003;31721;41.740;-88.000;2023-04-25T07:23:06;29;26;
45990;PMS5003;31721;41.740;-88.000;2023-04-25T07:25:33;35;31;
45990;PMS5003;31721;41.740;-88.000;2023-04-25T07:28:01;36;31;
45990;PMS5003;31721;41.740;-88.000;2023-04-25T07:30:29;30;29;
45990;PMS5003;31721;41.740;-88.000;2023-04-25T07:32:57;21;19;
45990;PMS5003;31721;41.740;-88.000;2023-04-25T07:35:25;28;26;
45990;PMS5003;31721;41.740;-88.000;2023-04-25T07:37:53;24;23;
45990;PMS5003;31721;41.740;-88.000;2023-04-25T07:40:21;22;22;
45990;PMS5003;31721;41.740;-88.000;2023-04-25T07:42:49;30;28;
45990;PMS5003;31721;41.740;-88.000;2023-04-25T07:45:17;31;25;
45990;PMS5003;31721;41.740;-88.000;2023-04-25T07:47:44;31;25;
45990;PMS5003;31721;41.740;-88.000;2023-04-25T07:50:12;21;21;
45990;PMS5003;31721;41.740;-88.000;2023-04-25T07:52:40;28;26;
45990;PMS5003;31721;41.740;-88.000;2023-04-25T07:55:08;25;25;
45990;PMS5003;31721;41.740;-88.000;2023-04-25T07:57:36;29;26;
45990;PMS5003;31721;41.740;-88.000;2023-04-25T08:00:04;30;25;
45990;PMS5003;31721;41.740;-88.000;2023-04-25T08:02:33;26;23;
45990;PMS5003;31721;41.740;-88.000;2023-04-25T08:05:00;22;17;
45990;PMS5003;31721;41.740;-88.000;2023-04-25T08:07:28;24;23;
45990;PMS5003;31721;41.740;-88.000;2023-04-25T08:09:56;36;31;
45990;PMS5003;31721;41.740;-88.000;2023-04-25T08:12:24;29;25;
45990;PMS5003;31721;41.740;-88.000;2023-04-25T08:14:51;24;23;
45990;PMS5003;31721;41.740;-88.000;2023-04-25T08:17:18;31;26;
45990;PMS5003;31721;41.740;-88.000;2023-04-25T08:19:46;30;28;
45990;PMS5003;31721;41.740;-88.000;2023-04-25T08:22:14;27;23;
45990;PMS5003;31721;41.740;-88.000;2023-04-25T08:24:42;29;29;
45990;PMS5003;31721;41.740;-88.000;2023-04-25T08:27:10;32;26;
45990;PMS5003;31721;41.740;-88.000;2023-04-25T08:29:38;32;30;
45990;PMS5003;31721;41.740;-88.000;2023-04-25T08:32:05;27;25;
45990;PMS5003;31721;41.740;-88.000;2023-04-25T08:34:33;37;29;
45990;PMS5003;31721;41.740;-88.000;2023-04-25T08:37:01;34;30;
45990;PMS5003;31721;41.740;-88.000;2023-04-25T08:39:29;32;29;
45990;PMS5003;31721;41.740;-88.000;2023-04-25T08:41:56;28;25;
45990;PMS5003;31721;41.740;-88.000;2023-04-25T08:44:24;30;26;
45990;PMS5003;31721;41.740;-88.000;2023-04-25T08:46:53;45;37;
45990;PMS5003;31721;41.740;-88.000;2023-04-25T08:49:22;38;32;
45990;PMS5003;31721;41.740;-88.000;2023-04-25T08:51:51;32;31;
45990;PMS5003;31721;41.740;-88.000;2023-04-25T08:54:22;41;34;
45990;PMS5003;31721;41.740;-88.000;2023-04-25T08:56:54;41;32;
45990;PMS5003;31721;41.740;-88.000;2023-04-25T08:59:23;36;30;
45990;PMS5003;31721;41.740;-88.000;2023-04-25T09:01:51;25;23;
45990;PMS5003;31721;41.740;-88.000;2023-04-25T09:04:19;30;25;
45990;PMS5003;31721;41.740;-88.000;2023-04-25T09:06:47;32;32;
45990;PMS5003;31721;41.740;-88.000;2023-04-25T09:09:15;37;34;
45990;PMS5003;31721;41.740;-88.000;2023-04-25T09:11:43;32;31;
45990;PMS5003;31721;41.740;-88.000;2023-04-25T09:14:13;36;32;
45990;PMS5003;31721;41.740;-88.000;2023-04-25T09:16:58;38;34;
45990;PMS5003;31721;41.740;-88.000;2023-04-25T09:19:27;35;32;
45990;PMS5003;31721;41.740;-88.000;2023-04-25T09:21:57;32;32;
45990;PMS5003;31721;41.740;-88.000;2023-04-25T09:24:33;45;39;
45990;PMS5003;31721;41.740;-88.000;2023-04-25T09:27:03;44;38;
45990;PMS5003;31721;41.740;-88.000;2023-04-25T09:29:32;41;31;
45990;PMS5003;31721;41.740;-88.000;2023-04-25T09:32:18;41;36;
45990;PMS5003;31721;41.740;-88.000;2023-04-25T09:34:47;41;38;
45990;PMS5003;31721;41.740;-88.000;2023-04-25T09:37:17;32;28;
45990;PMS5003;31721;41.740;-88.000;2023-04-25T09:39:47;38;35;
45990;PMS5003;31721;41.740;-88.000;2023-04-25T09:42:15;34;31;
45990;PMS5003;31721;41.740;-88.000;2023-04-25T09:44:43;41;32;
45990;PMS5003;31721;41.740;-88.000;2023-04-25T09:47:12;35;30;
45990;PMS5003;31721;41.740;-88.000;2023-04-25T09:49:46;35;32;
45990;PMS5003;31721;41.740;-88.000;2023-04-25T09:52:15;37;33;
45990;PMS5003;31721;41.740;-88.000;2023-04-25T09:54:44;41;37;
45990;PMS5003;31721;41.740;-88.000;2023-04-25T09:57:13;36;35;
45990;PMS5003;31721;41.740;-88.000;2023-04-25T09:59:43;40;34;
45990;PMS5003;31721;41.740;-88.000;2023-04-25T10:02:13;43;39;
45990;PMS5003;31721;41.740;-88.000;2023-04-25T10:04:42;38;35;
45990;PMS5003;31721;41.740;-88.000;2023-04-25T10:07:14;42;37;
45990;PMS5003;31721;41.740;-88.000;2023-04-25T10:09:43;47;43;
45990;PMS5003;31721;41.740;-88.000;2023-04-25T10:12:14;45;36;
45990;PMS5003;31721;41.740;-88.000;2023-04-25T10:14:42;48;45;
45990;PMS5003;31721;41.740;-88.000;2023-04-25T10:17:11;29;28;
45990;PMS5003;31721;41.740;-88.000;2023-04-25T10:19:39;47;41;
45990;PMS5003;31721;41.740;-88.000;2023-04-25T10:22:08;31;29;
45990;PMS5003;31721;41.740;-88.000;2023-04-25T10:24:40;59;49;
45990;PMS5003;31721;41.740;-88.000;2023-04-25T10:27:08;52;41;
45990;PMS5003;31721;41.740;-88.000;2023-04-25T10:29:37;51;47;
45990;PMS5003;31721;41.740;-88.000;2023-04-25T10:32:05;44;37;
45990;PMS5003;31721;41.740;-88.000;2023-04-25T10:34:41;54;45;
45990;PMS5003;31721;41.740;-88.000;2023-04-25T10:37:10;50;38;
45990;PMS5003;31721;41.740;-88.000;2023-04-25T10:39:39;46;40;
45990;PMS5003;31721;41.740;-88.000;2023-04-25T10:42:08;48;34;
45990;PMS5003;31721;41.740;-88.000;2023-04-25T10:44:37;54;45;
45990;PMS5003;31721;41.740;-88.000;2023-04-25T10:47:06;42;38;
45990;PMS5003;31721;41.740;-88.000;2023-04-25T10:49:35;54;49;
45990;PMS5003;31721;41.740;-88.000;2023-04-25T10:52:12;50;47;
45990;PMS5003;31721;41.740;-88.000;2023-04-25T10:54:43;54;53;
45990;PMS5003;31721;41.740;-88.000;2023-04-25T10:57:30;55;51;
45990;PMS5003;31721;41.740;-88.000;2023-04-25T11:00:01;58;51;
45990;PMS5003;31721;41.740;-88.000;2023-04-25T11:02:36;54;44;
45990;PMS5003;31721;41.740;-88.000;2023-04-25T11:05:07;49;45;
45990;PMS5003;31721;41.740;-88.000;2023-04-25T11:07:38;58;47;
45990;PMS5003;31721;41.740;-88.000;2023-04-25T11:10:12;46;44;
45990;PMS5003;31721;41.740;-88.000;2023-04-25T11:12:41;45;41;
45990;PMS5003;31721;41.740;-88.000;2023-04-25T11:15:09;46;39;
45990;PMS5003;31721;41.740;-88.000;2023-04-25T11:17:38;37;35;
45990;PMS5003;31721;41.740;-88.000;2023-04-25T11:20:06;40;36;
45990;PMS5003;31721;41.740;-88.000;2023-04-25T11:22:34;44;38;
45990;PMS5003;31721;41.740;-88.000;2023-04-25T11:25:04;42;33;
45990;PMS5003;31721;41.740;-88.000;2023-04-25T11:27:33;42;37;
45990;PMS5003;31721;41.740;-88.000;2023-04-25T11:30:11;36;30;
45990;PMS5003;31721;41.740;-88.000;2023-04-25T11:32:41;41;38;
45990;PMS5003;31721;41.740;-88.000;2023-04-25T11:35:09;31;31;
45990;PMS5003;31721;41.740;-88.000;2023-04-25T11:37:36;47;35;
45990;PMS5003;31721;41.740;-88.000;2023-04-25T11:40:06;39;36;
45990;PMS5003;31721;41.740;-88.000;2023-04-25T11:42:36;39;30;
45990;PMS5003;31721;41.740;-88.000;2023-04-25T11:45:05;34;31;
45990;PMS5003;31721;41.740;-88.000;2023-04-25T11:47:33;37;31;
45990;PMS5003;31721;41.740;-88.000;2023-04-25T11:50:02;31;24;
45990;PMS5003;31721;41.740;-88.000;2023-04-25T11:52:36;39;39;
45990;PMS5003;31721;41.740;-88.000;2023-04-25T11:55:06;31;29;
45990;PMS5003;31721;41.740;-88.000;2023-04-25T11:57:37;33;28;
45990;PMS5003;31721;41.740;-88.000;2023-04-25T12:00:08;34;31;
45990;PMS5003;31721;41.740;-88.000;2023-04-25T12:02:40;40;31;
45990;PMS5003;31721;41.740;-88.000;2023-04-25T12:05:08;39;29;
45990;PMS5003;31721;41.740;-88.000;2023-04-25T12:07:36;32;30;
45990;PMS5003;31721;41.740;-88.000;2023-04-25T12:10:05;26;26;
45990;PMS5003;31721;41.740;-88.000;2023-04-25T12:12:35;26;24;
45990;PMS5003;31721;41.740;-88.000;2023-04-25T12:15:12;31;28;
45990;PMS5003;31721;41.740;-88.000;2023-04-25T12:17:44;33;30;
45990;PMS5003;31721;41.740;-88.000;2023-04-25T12:20:13;30;25;
45990;PMS5003;31721;41.740;-88.000;2023-04-25T12:22:44;31;29;
45990;PMS5003;31721;41.740;-88.000;2023-04-25T12:25:14;45;37;
45990;PMS5003;31721;41.740;-88.000;2023-04-25T12:28:15;31;29;
45990;PMS5003;31721;41.740;-88.000;2023-04-25T12:30:53;41;34;
45990;PMS5003;31721;41.740;-88.000;2023-04-25T12:33:23;37;36;
45990;PMS5003;31721;41.740;-88.000;2023-04-25T12:35:52;30;26;
45990;PMS5003;31721;41.740;-88.000;2023-04-25T12:38:21;29;29;
45990;PMS5003;31721;41.740;-88.000;2023-04-25T12:40:50;26;24;
45990;PMS5003;31721;41.740;-88.000;2023-04-25T12:43:19;33;31;
45990;PMS5003;31721;41.740;-88.000;2023-04-25T12:45:47;27;21;
45990;PMS5003;31721;41.740;-88.000;2023-04-25T12:48:16;32;27;
45990;PMS5003;31721;41.740;-88.000;2023-04-25T12:50:45;37;31;
45990;PMS5003;31721;41.740;-88.000;2023-04-25T12:53:13;21;21;
45990;PMS5003;31721;41.740;-88.000;2023-04-25T12:55:42;27;24;
45990;PMS5003;31721;41.740;-88.000;2023-04-25T12:58:10;31;23;
45990;PMS5003;31721;41.740;-88.000;2023-04-25T13:00:39;30;24;
45990;PMS5003;31721;41.740;-88.000;2023-04-25T13:03:08;25;22;
45990;PMS5003;31721;41.740;-88.000;2023-04-25T13:05:37;18;18;
45990;PMS5003;31721;41.740;-88.000;2023-04-25T13:08:05;22;18;
45990;PMS5003;31721;41.740;-88.000;2023-04-25T13:10:33;22;16;
45990;PMS5003;31721;41.740;-88.000;2023-04-25T13:13:02;21;17;
45990;PMS5003;31721;41.740;-88.000;2023-04-25T13:15:30;19;18;
45990;PMS5003;31721;41.740;-88.000;2023-04-25T13:17:58;18;17;
45990;PMS5003;31721;41.740;-88.000;2023-04-25T13:20:27;25;18;
45990;PMS5003;31721;41.740;-88.000;2023-04-25T13:22:54;22;18;
45990;PMS5003;31721;41.740;-88.000;2023-04-25T13:25:23;19;17;
45990;PMS5003;31721;41.740;-88.000;2023-04-25T13:27:51;25;22;
45990;PMS5003;31721;41.740;-88.000;2023-04-25T13:30:19;21;20;
45990;PMS5003;31721;41.740;-88.000;2023-04-25T13:32:47;30;28;
45990;PMS5003;31721;41.740;-88.000;2023-04-25T13:35:16;28;28;
45990;PMS5003;31721;41.740;-88.000;2023-04-25T13:37:44;32;26;
45990;PMS5003;31721;41.740;-88.000;2023-04-25T13:40:13;31;26;
45990;PMS5003;31721;41.740;-88.000;2023-04-25T13:42:41;26;20;
45990;PMS5003;31721;41.740;-88.000;2023-04-25T13:45:09;33;30;
45990;PMS5003;31721;41.740;-88.000;2023-04-25T13:47:38;27;20;
45990;PMS5003;31721;41.740;-88.000;2023-04-25T13:50:06;36;30;
45990;PMS5003;31721;41.740;-88.000;2023-04-25T13:52:35;20;20;
45990;PMS5003;31721;41.740;-88.000;2023-04-25T13:55:04;26;24;
45990;PMS5003;31721;41.740;-88.000;2023-04-25T13:57:33;21;19;
45990;PMS5003;31721;41.740;-88.000;2023-04-25T14:00:03;25;20;
45990;PMS5003;31721;41.740;-88.000;2023-04-25T14:02:32;24;19;
45990;PMS5003;31721;41.740;-88.000;2023-04-25T14:05:00;19;18;
45990;PMS5003;31721;41.740;-88.000;2023-04-25T14:07:28;18;17;
45990;PMS5003;31721;41.740;-88.000;2023-04-25T14:09:57;14;14;
45990;PMS5003;31721;41.740;-88.000;2023-04-25T14:12:25;20;18;
45990;PMS5003;31721;41.740;-88.000;2023-04-25T14:14:53;25;20;
45990;PMS5003;31721;41.740;-88.000;2023-04-25T14:17:22;27;22;
45990;PMS5003;31721;41.740;-88.000;2023-04-25T14:19:50;18;18;
45990;PMS5003;31721;41.740;-88.000;2023-04-25T14:22:18;18;18;
45990;PMS5003;31721;41.740;-88.000;2023-04-25T14:24:46;20;16;
45990;PMS5003;31721;41.740;-88.000;2023-04-25T14:27:14;14;14;
45990;PMS5003;31721;41.740;-88.000;2023-04-25T14:29:41;20;14;
45990;PMS5003;31721;41.740;-88.000;2023-04-25T14:32:09;14;13;
45990;PMS5003;31721;41.740;-88.000;2023-04-25T14:34:37;7;7;
45990;PMS5003;31721;41.740;-88.000;2023-04-25T14:37:05;19;14;
45990;PMS5003;31721;41.740;-88.000;2023-04-25T14:39:34;17;14;
45990;PMS5003;31721;41.740;-88.000;2023-04-25T14:42:02;18;12;
45990;PMS5003;31721;41.740;-88.000;2023-04-25T14:44:30;20;17;
45990;PMS5003;31721;41.740;-88.000;2023-04-25T14:46:58;15;15;
45990;PMS5003;31721;41.740;-88.000;2023-04-25T14:49:26;17;17;
45990;PMS5003;31721;41.740;-88.000;2023-04-25T14:51:54;17;14;
45990;PMS5003;31721;41.740;-88.000;2023-04-25T14:54:22;13;13;
45990;PMS5003;31721;41.740;-88.000;2023-04-25T14:56:50;18;18;
45990;PMS5003;31721;41.740;-88.000;2023-04-25T14:59:18;13;13;
45990;PMS5003;31721;41.740;-88.000;2023-04-25T15:01:46;15;13;
45990;PMS5003;31721;41.740;-88.000;2023-04-25T15:04:16;12;12;
45990;PMS5003;31721;41.740;-88.000;2023-04-25T15:06:44;13;12;
45990;PMS5003;31721;41.740;-88.000;2023-04-25T15:09:13;16;13;
45990;PMS5003;31721;41.740;-88.000;2023-04-25T15:11:41;23;19;
45990;PMS5003;31721;41.740;-88.000;2023-04-25T15:14:10;22;20;
45990;PMS5003;31721;41.740;-88.000;2023-04-25T15:16:39;13;11;
45990;PMS5003;31721;41.740;-88.000;2023-04-25T15:19:07;17;14;
45990;PMS5003;31721;41.740;-88.000;2023-04-25T15:21:35;23;15;
45990;PMS5003;31721;41.740;-88.000;2023-04-25T15:24:03;16;14;
45990;PMS5003;31721;41.740;-88.000;2023-04-25T15:26:32;15;14;
45990;PMS5003;31721;41.740;-88.000;2023-04-25T15:29:00;17;15;
45990;PMS5003;31721;41.740;-88.000;2023-04-25T15:31:29;31;23;
45990;PMS5003;31721;41.740;-88.000;2023-04-25T15:33:57;17;13;
45990;PMS5003;31721;41.740;-88.000;2023-04-25T15:36:24;14;12;
45990;PMS5003;31721;41.740;-88.000;2023-04-25T15:38:53;10;10;
45990;PMS5003;31721;41.740;-88.000;2023-04-25T15:41:21;10;10;
45990;PMS5003;31721;41.740;-88.000;2023-04-25T15:43:49;10;8;
45990;PMS5003;31721;41.740;-88.000;2023-04-25T15:46:19;13;13;
45990;PMS5003;31721;41.740;-88.000;2023-04-25T15:48:47;13;12;
45990;PMS5003;31721;41.740;-88.000;2023-04-25T15:51:15;18;14;
45990;PMS5003;31721;41.740;-88.000;2023-04-25T15:53:44;20;16;
45990;PMS5003;31721;41.740;-88.000;2023-04-25T15:56:12;14;13;